createdAt,value
2017-06-26T00:01:45.349Z,17.40
2017-06-26T00:04:13.643Z,17.40
2017-06-26T00:06:41.203Z,17.40
2017-06-26T00:09:08.734Z,17.30
2017-06-26T00:11:48.686Z,17.30
2017-06-26T00:14:41.507Z,17.30
2017-06-26T00:17:09.058Z,17.20
2017-06-26T00:19:43.867Z,17.20
2017-06-26T00:22:36.986Z,17.10
2017-06-26T00:25:29.845Z,17.00
2017-06-26T00:27:58.173Z,17.00
2017-06-26T00:30:26.694Z,17.00
2017-06-26T00:33:18.698Z,17.00
2017-06-26T00:35:46.218Z,16.90
2017-06-26T00:38:21.933Z,16.90
2017-06-26T00:40:49.513Z,16.90
2017-06-26T00:43:29.857Z,17.00
2017-06-26T00:45:57.369Z,16.90
2017-06-26T00:48:31.106Z,16.90
2017-06-26T00:50:58.683Z,16.90
2017-06-26T00:53:55.471Z,16.90
2017-06-26T00:56:27.093Z,16.80
2017-06-26T00:58:55.403Z,16.70
2017-06-26T01:01:38.953Z,16.60
2017-06-26T01:04:06.501Z,16.60
2017-06-26T01:06:59.635Z,16.60
2017-06-26T01:09:27.165Z,16.60
2017-06-26T01:12:19.073Z,16.60
2017-06-26T01:14:46.608Z,16.60
2017-06-26T01:17:31.781Z,16.60
2017-06-26T01:19:59.294Z,16.60
2017-06-26T01:22:37.710Z,16.50
2017-06-26T01:25:06.003Z,16.50
2017-06-26T01:27:47.738Z,16.50
2017-06-26T01:30:15.262Z,16.60
2017-06-26T01:33:00.774Z,16.50
2017-06-26T01:35:28.298Z,16.50
2017-06-26T01:38:02.598Z,16.40
2017-06-26T01:40:30.118Z,16.30
2017-06-26T01:45:45.922Z,16.20
2017-06-26T01:48:33.434Z,16.20
2017-06-26T01:53:59.377Z,16.10
2017-06-26T01:56:26.909Z,16.10
2017-06-26T01:59:07.239Z,16.10
2017-06-26T02:01:34.797Z,16.10
2017-06-26T02:04:22.635Z,16.10
2017-06-26T02:06:50.978Z,16.10
2017-06-26T02:09:38.645Z,16.00
2017-06-26T02:12:06.933Z,16.00
2017-06-26T02:14:53.798Z,16.00
2017-06-26T02:17:21.341Z,16.00
2017-06-26T02:20:08.271Z,16.00
2017-06-26T02:22:35.790Z,16.10
2017-06-26T02:25:21.201Z,16.10
2017-06-26T02:28:13.542Z,16.00
2017-06-26T02:30:41.090Z,16.00
2017-06-26T02:33:29.282Z,15.90
2017-06-26T02:35:56.826Z,16.00
2017-06-26T02:38:30.034Z,15.90
2017-06-26T02:40:57.577Z,15.80
2017-06-26T02:43:42.950Z,15.80
2017-06-26T02:46:10.480Z,15.80
2017-06-26T02:49:03.553Z,15.80
2017-06-26T02:51:58.778Z,15.70
2017-06-26T02:54:26.301Z,15.60
2017-06-26T02:57:10.581Z,15.60
2017-06-26T02:59:38.101Z,15.50
2017-06-26T03:02:13.203Z,15.50
2017-06-26T03:04:40.731Z,15.50
2017-06-26T03:07:31.025Z,15.50
2017-06-26T03:09:58.549Z,15.40
2017-06-26T03:12:40.781Z,15.40
2017-06-26T03:15:08.297Z,15.30
2017-06-26T03:17:43.923Z,15.30
2017-06-26T03:20:11.535Z,15.20
2017-06-26T03:22:39.074Z,15.20
2017-06-26T03:25:15.612Z,15.20
2017-06-26T03:27:43.125Z,15.20
2017-06-26T03:30:30.562Z,15.20
2017-06-26T03:32:58.084Z,15.20
2017-06-26T03:35:45.642Z,15.20
2017-06-26T03:38:13.162Z,15.20
2017-06-26T03:41:04.214Z,15.20
2017-06-26T03:43:31.738Z,15.20
2017-06-26T03:45:59.298Z,15.20
2017-06-26T03:48:39.302Z,15.20
2017-06-26T03:51:06.847Z,15.30
2017-06-26T03:53:49.373Z,15.30
2017-06-26T03:56:17.005Z,15.30
2017-06-26T03:59:02.743Z,15.50
2017-06-26T04:01:31.037Z,15.70
2017-06-26T04:04:16.555Z,15.70
2017-06-26T04:06:44.107Z,15.80
2017-06-26T04:09:24.508Z,15.80
2017-06-26T04:11:52.045Z,15.90
2017-06-26T04:14:26.583Z,16.00
2017-06-26T04:19:41.148Z,16.20
2017-06-26T04:22:21.917Z,16.20
2017-06-26T04:24:49.454Z,16.30
2017-06-26T04:27:16.987Z,16.30
2017-06-26T04:30:02.514Z,16.40
2017-06-26T04:32:30.106Z,16.40
2017-06-26T04:35:17.906Z,16.40
2017-06-26T04:37:45.458Z,16.40
2017-06-26T04:40:38.222Z,16.50
2017-06-26T04:43:05.774Z,16.70
2017-06-26T04:45:51.974Z,16.80
2017-06-26T04:48:19.516Z,16.90
2017-06-26T04:50:59.174Z,17.10
2017-06-26T04:53:26.741Z,17.20
2017-06-26T04:56:08.549Z,17.30
2017-06-26T04:58:36.181Z,17.30
2017-06-26T05:01:21.457Z,17.50
2017-06-26T05:03:49.109Z,17.60
2017-06-26T05:06:30.589Z,17.80
2017-06-26T05:08:58.129Z,17.90
2017-06-26T05:11:35.685Z,18.00
2017-06-26T05:14:03.259Z,18.10
2017-06-26T05:16:50.985Z,18.20
2017-06-26T05:19:18.609Z,18.20
2017-06-26T05:22:03.792Z,18.50
2017-06-26T05:24:31.539Z,18.70
2017-06-26T05:27:04.902Z,18.90
2017-06-26T05:29:32.496Z,19.00
2017-06-26T05:32:12.519Z,19.00
2017-06-26T05:34:40.214Z,19.10
2017-06-26T05:37:24.367Z,19.30
2017-06-26T05:39:52.020Z,19.40
2017-06-26T05:42:33.622Z,19.50
2017-06-26T05:45:01.185Z,19.30
2017-06-26T05:47:40.125Z,19.20
2017-06-26T05:50:07.657Z,19.00
2017-06-26T05:52:52.754Z,18.90
2017-06-26T05:55:20.303Z,18.90
2017-06-26T05:58:02.197Z,19.00
2017-06-26T06:00:29.721Z,19.10
2017-06-26T06:03:03.453Z,19.30
2017-06-26T06:05:31.009Z,19.40
2017-06-26T06:08:08.237Z,19.50
2017-06-26T06:10:35.769Z,19.50
2017-06-26T06:13:23.357Z,19.70
2017-06-26T06:15:50.955Z,19.80
2017-06-26T06:18:33.669Z,19.90
2017-06-26T06:21:01.185Z,20.00
2017-06-26T06:23:37.104Z,20.10
2017-06-26T06:26:04.738Z,20.20
2017-06-26T06:28:46.030Z,20.30
2017-06-26T06:33:59.395Z,20.60
2017-06-26T06:36:51.610Z,20.70
2017-06-26T06:39:19.162Z,20.70
2017-06-26T06:41:56.172Z,20.90
2017-06-26T06:44:23.807Z,20.90
2017-06-26T06:47:00.774Z,21.10
2017-06-26T06:49:28.329Z,21.20
2017-06-26T06:52:20.154Z,21.30
2017-06-26T06:54:47.715Z,21.50
2017-06-26T06:57:29.214Z,21.70
2017-06-26T06:59:56.773Z,21.70
2017-06-26T07:02:32.474Z,21.90
2017-06-26T07:05:00.810Z,22.10
2017-06-26T07:07:45.161Z,22.10
2017-06-26T07:10:12.809Z,22.20
2017-06-26T07:12:57.092Z,22.20
2017-06-26T07:15:24.733Z,22.20
2017-06-26T07:18:00.613Z,22.30
2017-06-26T07:20:28.256Z,22.40
2017-06-26T07:23:15.679Z,22.50
2017-06-26T07:25:43.224Z,22.60
2017-06-26T07:28:27.984Z,22.70
2017-06-26T07:30:55.548Z,22.80
2017-06-26T07:33:42.350Z,22.80
2017-06-26T07:36:09.908Z,22.80
2017-06-26T07:38:58.070Z,22.90
2017-06-26T07:41:25.720Z,23.00
2017-06-26T07:44:05.542Z,23.10
2017-06-26T07:46:33.105Z,23.30
2017-06-26T07:49:17.366Z,23.30
2017-06-26T07:51:44.913Z,23.20
2017-06-26T07:54:24.714Z,23.40
2017-06-26T07:59:44.970Z,23.60
2017-06-26T08:02:24.794Z,23.70
2017-06-26T08:04:52.351Z,23.70
2017-06-26T08:07:36.243Z,23.80
2017-06-26T08:10:03.797Z,23.90
2017-06-26T08:12:50.818Z,24.00
2017-06-26T08:15:18.359Z,24.10
2017-06-26T08:17:46.859Z,24.20
2017-06-26T08:20:14.387Z,24.20
2017-06-26T08:23:01.579Z,24.10
2017-06-26T08:25:29.097Z,24.20
2017-06-26T08:30:30.134Z,24.30
2017-06-26T08:33:23.443Z,24.40
2017-06-26T08:35:51.002Z,24.50
2017-06-26T08:38:31.824Z,24.60
2017-06-26T08:40:59.386Z,24.60
2017-06-26T08:43:33.774Z,24.60
2017-06-26T08:46:01.328Z,24.60
2017-06-26T08:48:47.470Z,24.80
2017-06-26T08:51:15.067Z,24.70
2017-06-26T08:54:07.810Z,24.70
2017-06-26T08:56:35.351Z,24.70
2017-06-26T08:59:22.128Z,24.70
2017-06-26T09:02:17.210Z,24.70
2017-06-26T09:04:44.778Z,24.80
2017-06-26T09:07:24.697Z,24.80
2017-06-26T09:09:52.362Z,24.80
2017-06-26T09:15:12.953Z,24.70
2017-06-26T09:17:58.973Z,25.00
2017-06-26T09:20:54.470Z,25.20
2017-06-26T09:23:22.113Z,25.50
2017-06-26T09:26:05.569Z,25.70
2017-06-26T09:28:33.216Z,25.40
2017-06-26T09:31:04.973Z,25.40
2017-06-26T09:33:32.653Z,25.40
2017-06-26T09:36:13.103Z,25.40
2017-06-26T09:38:40.860Z,25.50
2017-06-26T09:43:55.100Z,25.50
2017-06-26T09:46:40.813Z,25.70
2017-06-26T09:49:08.476Z,25.90
2017-06-26T09:54:44.999Z,26.00
2017-06-26T09:57:12.546Z,26.00
2017-06-26T10:00:00.678Z,26.10
2017-06-26T10:02:28.239Z,26.20
2017-06-26T10:05:10.757Z,26.30
2017-06-26T10:07:38.500Z,26.20
2017-06-26T10:10:17.747Z,26.20
2017-06-26T10:12:45.397Z,26.40
2017-06-26T10:15:26.681Z,26.60
2017-06-26T10:17:54.235Z,26.80
2017-06-26T10:20:36.085Z,26.60
2017-06-26T10:23:03.649Z,26.50
2017-06-26T10:25:49.585Z,26.60
2017-06-26T10:28:17.145Z,26.60
2017-06-26T10:30:55.283Z,26.90
2017-06-26T10:33:22.833Z,27.00
2017-06-26T10:36:06.443Z,26.80
2017-06-26T10:38:34.170Z,26.90
2017-06-26T10:41:30.065Z,26.70
2017-06-26T10:44:01.074Z,26.40
2017-06-26T10:46:28.642Z,26.50
2017-06-26T10:49:15.646Z,26.90
2017-06-26T10:51:43.211Z,27.20
2017-06-26T10:54:23.223Z,27.40
2017-06-26T10:56:51.534Z,28.50
2017-06-26T10:59:27.517Z,28.40
2017-06-26T11:02:18.506Z,28.60
2017-06-26T11:04:46.074Z,28.70
2017-06-26T11:07:31.046Z,29.00
2017-06-26T11:09:58.687Z,29.10
2017-06-26T11:12:44.437Z,29.30
2017-06-26T11:15:12.034Z,29.50
2017-06-26T11:17:48.199Z,29.80
2017-06-26T11:20:15.741Z,29.50
2017-06-26T11:22:54.347Z,30.20
2017-06-26T11:28:07.117Z,30.70
2017-06-26T11:30:56.017Z,31.60
2017-06-26T11:33:23.573Z,32.00
2017-06-26T11:35:59.032Z,32.90
2017-06-26T11:38:52.650Z,35.30
2017-06-26T11:41:20.174Z,35.20
2017-06-26T11:43:58.811Z,35.80
2017-06-26T11:46:26.386Z,36.40
2017-06-26T11:49:13.323Z,37.40
2017-06-26T11:51:40.846Z,37.40
2017-06-26T11:56:54.538Z,39.20
2017-06-26T11:59:38.670Z,40.20
2017-06-26T12:02:06.226Z,40.20
2017-06-26T12:04:44.546Z,40.50
2017-06-26T12:07:12.102Z,41.60
2017-06-26T12:09:59.946Z,43.00
2017-06-26T12:12:27.580Z,43.50
2017-06-26T12:15:09.621Z,43.10
2017-06-26T12:17:37.149Z,42.60
2017-06-26T12:20:17.413Z,41.00
2017-06-26T12:22:44.939Z,40.70
2017-06-26T12:25:22.613Z,40.50
2017-06-26T12:27:50.137Z,40.80
2017-06-26T12:30:36.257Z,41.90
2017-06-26T12:33:04.544Z,42.20
2017-06-26T12:35:44.888Z,43.10
2017-06-26T12:38:12.417Z,43.00
2017-06-26T12:40:53.143Z,43.10
2017-06-26T12:43:20.706Z,43.70
2017-06-26T12:46:05.193Z,45.20
2017-06-26T12:48:32.740Z,44.60
2017-06-26T12:51:12.854Z,45.10
2017-06-26T12:53:40.378Z,45.90
2017-06-26T12:56:33.734Z,45.90
2017-06-26T12:59:01.268Z,46.00
2017-06-26T13:01:43.574Z,45.10
2017-06-26T13:04:11.094Z,45.20
2017-06-26T13:07:01.050Z,44.30
2017-06-26T13:09:28.571Z,45.90
2017-06-26T13:12:08.921Z,46.10
2017-06-26T13:14:36.445Z,47.30
2017-06-26T13:17:17.389Z,47.20
2017-06-26T13:22:38.405Z,45.70
2017-06-26T13:25:14.877Z,46.50
2017-06-26T13:27:42.551Z,47.30
2017-06-26T13:30:17.081Z,46.50
2017-06-26T13:32:44.657Z,46.60
2017-06-26T13:35:34.613Z,45.30
2017-06-26T13:38:02.261Z,45.20
2017-06-26T13:40:37.302Z,46.40
2017-06-26T13:43:04.826Z,46.90
2017-06-26T13:45:32.806Z,44.40
2017-06-26T13:48:00.342Z,44.80
2017-06-26T13:50:40.284Z,46.10
2017-06-26T13:53:08.574Z,47.20
2017-06-26T13:55:42.326Z,47.20
2017-06-26T13:58:09.846Z,47.30
2017-06-26T14:00:47.018Z,47.10
2017-06-26T14:03:15.306Z,42.70
2017-06-26T14:05:52.070Z,42.60
2017-06-26T14:08:20.370Z,43.30
2017-06-26T14:11:13.170Z,43.20
2017-06-26T14:13:40.697Z,43.80
2017-06-26T14:16:22.531Z,44.20
2017-06-26T14:18:50.054Z,43.70
2017-06-26T14:21:24.468Z,45.20
2017-06-26T14:23:52.021Z,44.30
2017-06-26T14:26:32.581Z,44.60
2017-06-26T14:29:00.169Z,44.90
2017-06-26T14:31:48.805Z,44.90
2017-06-26T14:34:16.353Z,44.50
2017-06-26T14:37:07.300Z,44.90
2017-06-26T14:39:34.845Z,46.60
2017-06-26T14:42:11.849Z,46.90
2017-06-26T14:44:39.390Z,47.10
2017-06-26T14:47:22.401Z,46.30
2017-06-26T14:49:49.942Z,45.70
2017-06-26T14:52:28.504Z,45.20
2017-06-26T14:54:56.058Z,45.60
2017-06-26T14:57:33.088Z,46.50
2017-06-26T15:00:00.647Z,46.50
2017-06-26T15:02:39.328Z,45.90
2017-06-26T15:05:06.870Z,46.10
2017-06-26T15:07:42.422Z,45.90
2017-06-26T15:10:09.965Z,47.30
2017-06-26T15:12:44.991Z,47.00
2017-06-26T15:15:36.805Z,44.70
2017-06-26T15:18:04.329Z,45.50
2017-06-26T15:20:45.244Z,45.20
2017-06-26T15:23:12.775Z,45.20
2017-06-26T15:25:50.679Z,44.60
2017-06-26T15:28:18.244Z,44.30
2017-06-26T15:31:38.997Z,43.30
2017-06-26T15:34:06.744Z,43.30
2017-06-26T15:36:52.761Z,43.20
2017-06-26T15:42:14.387Z,43.70
2017-06-26T15:44:51.983Z,43.60
2017-06-26T15:47:19.839Z,43.10
2017-06-26T15:49:56.422Z,43.70
2017-06-26T15:52:23.969Z,44.40
2017-06-26T15:54:51.492Z,43.90
2017-06-26T15:57:19.043Z,43.70
2017-06-26T15:59:47.362Z,43.00
2017-06-26T16:02:15.026Z,43.00
2017-06-26T16:04:42.570Z,43.50
2017-06-26T16:07:10.134Z,44.00
2017-06-26T16:09:37.702Z,44.40
2017-06-26T16:12:05.248Z,43.50
2017-06-26T16:14:33.012Z,43.70
2017-06-26T16:17:01.416Z,43.30
2017-06-26T16:19:29.049Z,42.30
2017-06-26T16:21:56.614Z,42.40
2017-06-26T16:24:24.135Z,42.40
2017-06-26T16:26:52.902Z,41.30
2017-06-26T16:29:20.425Z,41.40
2017-06-26T16:31:48.054Z,41.20
2017-06-26T16:34:15.581Z,40.20
2017-06-26T16:36:43.201Z,39.70
2017-06-26T16:39:10.745Z,38.40
2017-06-26T16:41:38.415Z,37.30
2017-06-26T16:44:05.945Z,35.90
2017-06-26T16:46:33.474Z,35.00
2017-06-26T16:49:01.801Z,33.80
2017-06-26T16:51:29.471Z,33.80
2017-06-26T16:53:57.130Z,33.40
2017-06-26T16:56:24.651Z,32.70
2017-06-26T16:58:52.968Z,32.00
2017-06-26T17:01:20.536Z,32.00
2017-06-26T17:03:48.063Z,32.00
2017-06-26T17:06:15.656Z,31.70
2017-06-26T17:08:43.210Z,31.40
2017-06-26T17:11:10.734Z,31.20
2017-06-26T17:13:38.331Z,30.90
2017-06-26T17:16:05.844Z,30.80
2017-06-26T17:18:34.164Z,30.60
2017-06-26T17:21:01.694Z,30.60
2017-06-26T17:23:29.230Z,30.50
2017-06-26T17:25:57.551Z,30.20
2017-06-26T17:28:25.117Z,30.20
2017-06-26T17:30:52.682Z,30.10
2017-06-26T17:33:20.338Z,30.00
2017-06-26T17:35:47.858Z,29.90
2017-06-26T17:38:16.173Z,29.70
2017-06-26T17:40:43.725Z,29.70
2017-06-26T17:43:11.254Z,29.70
2017-06-26T17:45:39.577Z,29.40
2017-06-26T17:48:28.659Z,29.40
2017-06-26T17:50:56.180Z,29.30
2017-06-26T17:53:37.726Z,29.20
2017-06-26T17:56:05.343Z,29.10
2017-06-26T17:58:38.608Z,29.00
2017-06-26T18:06:53.815Z,28.60
2017-06-26T18:09:29.714Z,28.50
2017-06-26T18:11:57.294Z,28.50
2017-06-26T18:14:47.410Z,28.40
2017-06-26T18:20:01.835Z,28.20
2017-06-26T18:22:54.006Z,28.10
2017-06-26T18:25:21.731Z,28.00
2017-06-26T18:27:55.067Z,27.90
2017-06-26T18:30:22.602Z,27.80
2017-06-26T18:32:56.870Z,27.70
2017-06-26T18:35:25.195Z,27.50
2017-06-26T18:37:56.234Z,27.50
2017-06-26T18:40:42.315Z,27.40
2017-06-26T18:43:10.182Z,27.30
2017-06-26T18:45:37.945Z,27.20
2017-06-26T18:48:05.811Z,27.00
2017-06-26T18:50:39.576Z,26.80
2017-06-26T18:53:07.145Z,26.70
2017-06-26T18:55:50.339Z,26.40
2017-06-26T18:58:17.884Z,26.40
2017-06-26T19:01:01.914Z,26.30
2017-06-26T19:03:29.467Z,26.20
2017-06-26T19:06:11.562Z,26.10
2017-06-26T19:08:39.122Z,26.00
2017-06-26T19:11:17.620Z,26.00
2017-06-26T19:13:45.166Z,25.90
2017-06-26T19:16:27.230Z,25.70
2017-06-26T19:18:54.780Z,25.60
2017-06-26T19:21:28.868Z,25.50
2017-06-26T19:24:21.978Z,25.40
2017-06-26T19:26:50.349Z,25.20
2017-06-26T19:29:34.703Z,25.20
2017-06-26T19:32:02.225Z,25.20
2017-06-26T19:34:38.232Z,25.20
2017-06-26T19:37:05.895Z,25.10
2017-06-26T19:40:01.494Z,25.00
2017-06-26T19:42:36.282Z,24.90
2017-06-26T19:47:56.595Z,24.70
2017-06-26T19:50:35.417Z,24.60
2017-06-26T19:53:02.967Z,24.60
2017-06-26T19:55:46.511Z,24.50
2017-06-26T19:58:14.064Z,24.40
2017-06-26T20:00:51.051Z,24.30
2017-06-26T20:03:18.572Z,24.30
2017-06-26T20:05:55.323Z,24.30
2017-06-26T20:08:22.949Z,24.20
2017-06-26T20:11:05.450Z,24.10
2017-06-26T20:13:33.222Z,24.00
2017-06-26T20:16:17.502Z,23.90
2017-06-26T20:18:45.226Z,23.80
2017-06-26T20:21:19.057Z,23.80
2017-06-26T20:24:12.422Z,23.70
2017-06-26T20:26:39.998Z,23.60
2017-06-26T20:29:14.330Z,23.50
2017-06-26T20:31:42.157Z,23.40
2017-06-26T20:34:25.809Z,23.20
2017-06-26T20:36:53.382Z,23.10
2017-06-26T20:39:40.509Z,23.10
2017-06-26T20:42:08.085Z,23.00
2017-06-26T20:44:51.443Z,22.90
2017-06-26T20:47:18.993Z,22.80
2017-06-26T20:49:57.737Z,22.70
2017-06-26T20:52:25.365Z,22.60
2017-06-26T20:55:03.637Z,22.50
2017-06-26T20:57:31.210Z,22.40
2017-06-26T21:00:04.469Z,22.30
2017-06-26T21:02:32.039Z,22.30
2017-06-26T21:05:02.336Z,22.30
2017-06-26T21:07:51.868Z,22.30
2017-06-26T21:13:06.682Z,22.20
2017-06-26T21:15:39.370Z,22.10
2017-06-26T21:18:06.929Z,22.00
2017-06-26T21:20:50.607Z,21.90
2017-06-26T21:23:18.145Z,21.90
2017-06-26T21:25:51.918Z,21.80
2017-06-26T21:28:45.029Z,21.70
2017-06-26T21:31:12.550Z,21.70
2017-06-26T21:33:40.078Z,21.60
2017-06-26T21:36:07.625Z,21.60
2017-06-26T21:38:35.223Z,21.60
2017-06-26T21:41:02.749Z,21.50
2017-06-26T21:43:31.066Z,21.50
2017-06-26T21:45:58.586Z,21.40
2017-06-26T21:48:26.895Z,21.40
2017-06-26T21:50:54.558Z,21.40
2017-06-26T21:53:22.125Z,21.40
2017-06-26T21:55:49.686Z,21.30
2017-06-26T21:58:17.241Z,21.20
2017-06-26T22:00:44.763Z,21.20
2017-06-26T22:03:13.083Z,21.20
2017-06-26T22:05:40.628Z,21.10
2017-06-26T22:08:08.197Z,21.10
2017-06-26T22:10:35.720Z,21.10
2017-06-26T22:13:04.029Z,21.00
2017-06-26T22:15:31.541Z,21.00
2017-06-26T22:17:59.824Z,21.00
2017-06-26T22:20:28.143Z,20.90
2017-06-26T22:22:55.701Z,20.90
2017-06-26T22:25:23.216Z,21.00
2017-06-26T22:27:51.519Z,21.00
2017-06-26T22:30:19.097Z,20.90
2017-06-26T22:32:46.658Z,21.00
2017-06-26T22:35:14.192Z,21.00
2017-06-26T22:37:41.718Z,20.90
2017-06-26T22:40:09.436Z,21.00
2017-06-26T22:42:36.998Z,21.10
2017-06-26T22:45:04.558Z,21.20
2017-06-26T22:47:32.114Z,21.30
2017-06-26T22:49:59.677Z,21.20
2017-06-26T22:52:27.201Z,21.20
2017-06-26T22:54:55.518Z,21.10
2017-06-26T22:57:23.174Z,21.00
2017-06-26T22:59:50.694Z,21.00
2017-06-26T23:02:18.982Z,20.90
2017-06-26T23:04:46.525Z,20.90
2017-06-26T23:07:14.857Z,20.80
2017-06-26T23:09:42.381Z,20.80
2017-06-26T23:12:09.975Z,20.80
2017-06-26T23:14:37.626Z,20.70
2017-06-26T23:17:05.189Z,20.40
2017-06-26T23:19:33.069Z,20.20
2017-06-26T23:22:00.585Z,20.10
2017-06-26T23:24:28.992Z,19.90
2017-06-26T23:26:56.554Z,19.90
2017-06-26T23:29:24.072Z,19.90
2017-06-26T23:31:52.395Z,19.80
2017-06-26T23:34:20.052Z,19.80
2017-06-26T23:36:47.717Z,19.80
2017-06-26T23:39:15.236Z,19.80
2017-06-26T23:41:43.554Z,19.80
2017-06-26T23:44:11.078Z,19.80
2017-06-26T23:46:38.622Z,19.90
2017-06-26T23:49:06.949Z,19.90
2017-06-26T23:51:34.470Z,19.90
2017-06-26T23:54:02.758Z,19.90
2017-06-26T23:56:30.302Z,19.90
2017-06-26T23:58:58.593Z,19.90
